createdAt,value
2023-01-15T00:00:09.859Z,1.30
2023-01-15T00:01:09.873Z,1.10
2023-01-15T00:02:09.885Z,1.00
2023-01-15T00:03:09.838Z,1.30
2023-01-15T00:04:09.812Z,1.10
2023-01-15T00:05:09.831Z,1.10
2023-01-15T00:06:09.792Z,1.00
2023-01-15T00:07:09.785Z,1.10
2023-01-15T00:08:09.783Z,1.20
2023-01-15T00:09:09.790Z,0.70
2023-01-15T00:10:09.747Z,1.00
2023-01-15T00:11:09.740Z,0.80
2023-01-15T00:12:09.726Z,0.80
2023-01-15T00:13:09.721Z,1.20
2023-01-15T00:14:09.705Z,0.90
2023-01-15T00:15:09.705Z,1.00
2023-01-15T00:16:09.695Z,0.90
2023-01-15T00:17:09.665Z,0.70
2023-01-15T00:18:09.653Z,1.00
2023-01-15T00:19:09.652Z,0.90
2023-01-15T00:20:09.630Z,0.80
2023-01-15T00:21:09.641Z,1.10
2023-01-15T00:22:09.614Z,0.80
2023-01-15T00:23:09.597Z,0.80
2023-01-15T00:24:09.586Z,0.80
2023-01-15T00:25:09.575Z,0.90
2023-01-15T00:26:09.567Z,0.80
2023-01-15T00:27:09.570Z,1.00
2023-01-15T00:28:09.540Z,1.00
2023-01-15T00:29:09.528Z,0.80
2023-01-15T00:30:09.532Z,1.10
2023-01-15T00:31:09.570Z,1.00
2023-01-15T00:32:09.505Z,1.00
2023-01-15T00:33:09.487Z,1.30
2023-01-15T00:34:09.471Z,0.80
2023-01-15T00:35:09.460Z,1.00
2023-01-15T00:36:09.449Z,1.20
2023-01-15T00:37:09.441Z,0.90
2023-01-15T00:38:09.425Z,1.10
2023-01-15T00:39:09.437Z,1.00
2023-01-15T00:40:09.408Z,1.00
2023-01-15T00:41:09.390Z,0.80
2023-01-15T00:42:09.381Z,1.10
2023-01-15T00:43:09.384Z,1.20
2023-01-15T00:44:09.359Z,0.80
2023-01-15T00:45:09.375Z,1.20
2023-01-15T00:46:09.378Z,0.90
2023-01-15T00:47:09.329Z,0.80
2023-01-15T00:48:09.331Z,0.80
2023-01-15T00:49:09.309Z,0.80
2023-01-15T00:50:09.301Z,1.00
2023-01-15T00:51:09.283Z,1.10
2023-01-15T00:52:09.266Z,1.00
2023-01-15T00:53:09.255Z,0.80
2023-01-15T00:54:09.248Z,0.90
2023-01-15T00:55:09.256Z,0.80
2023-01-15T00:56:09.239Z,1.10
2023-01-15T00:57:09.230Z,1.30
2023-01-15T00:58:09.198Z,0.90
2023-01-15T00:59:09.197Z,1.10
2023-01-15T01:00:09.192Z,0.90
2023-01-15T01:01:09.351Z,0.70
2023-01-15T01:02:09.275Z,0.90
2023-01-15T01:03:09.148Z,1.00
2023-01-15T01:04:09.129Z,0.70
2023-01-15T01:05:09.113Z,0.70
2023-01-15T01:06:09.104Z,0.70
2023-01-15T01:07:09.094Z,0.80
2023-01-15T01:08:09.082Z,0.90
2023-01-15T01:09:09.076Z,0.70
2023-01-15T01:10:09.065Z,1.00
2023-01-15T01:11:09.052Z,0.70
2023-01-15T01:12:09.040Z,1.30
2023-01-15T01:13:09.024Z,0.70
2023-01-15T01:14:09.029Z,1.00
2023-01-15T01:15:09.008Z,1.00
2023-01-15T01:16:09.038Z,0.80
2023-01-15T01:17:08.982Z,0.90
2023-01-15T01:18:08.968Z,0.70
2023-01-15T01:19:08.957Z,0.80
2023-01-15T01:20:08.949Z,0.80
2023-01-15T01:21:08.964Z,0.80
2023-01-15T01:22:08.932Z,0.70
2023-01-15T01:23:08.915Z,0.80
2023-01-15T01:24:08.916Z,0.70
2023-01-15T01:25:08.903Z,0.80
2023-01-15T01:26:08.895Z,0.70
2023-01-15T01:27:08.886Z,0.90
2023-01-15T01:28:08.852Z,1.00
2023-01-15T01:29:08.844Z,1.00
2023-01-15T01:30:08.840Z,0.90
2023-01-15T01:31:08.911Z,1.00
2023-01-15T01:32:08.806Z,0.70
2023-01-15T01:33:08.811Z,0.70
2023-01-15T01:34:08.795Z,0.90
2023-01-15T01:35:08.774Z,1.00
2023-01-15T01:36:08.781Z,0.80
2023-01-15T01:37:08.749Z,0.70
2023-01-15T01:38:08.749Z,0.80
2023-01-15T01:39:08.761Z,0.90
2023-01-15T01:40:08.726Z,0.60
2023-01-15T01:41:08.706Z,0.90
2023-01-15T01:42:08.697Z,0.80
2023-01-15T01:43:08.685Z,0.80
2023-01-15T01:44:08.670Z,0.90
2023-01-15T01:45:08.679Z,0.80
2023-01-15T01:46:08.648Z,0.60
2023-01-15T01:47:08.647Z,1.30
2023-01-15T01:48:08.628Z,0.80
2023-01-15T01:49:08.618Z,1.20
2023-01-15T01:50:08.620Z,0.90
2023-01-15T01:51:08.598Z,0.70
2023-01-15T01:52:08.579Z,0.80
2023-01-15T01:53:08.571Z,0.70
2023-01-15T01:54:08.556Z,0.70
2023-01-15T01:55:08.545Z,0.80
2023-01-15T01:56:08.533Z,0.80
2023-01-15T01:57:08.602Z,0.70
2023-01-15T01:58:08.510Z,1.00
2023-01-15T01:59:08.505Z,0.70
2023-01-15T02:00:08.487Z,0.80
2023-01-15T02:01:08.596Z,0.70
2023-01-15T02:02:08.544Z,0.90
2023-01-15T02:03:08.473Z,0.70
2023-01-15T02:04:08.452Z,0.70
2023-01-15T02:05:08.432Z,0.60
2023-01-15T02:06:08.440Z,0.70
2023-01-15T02:07:08.411Z,0.80
2023-01-15T02:08:08.401Z,0.70
2023-01-15T02:09:08.410Z,1.00
2023-01-15T02:10:08.378Z,0.90
2023-01-15T02:11:08.362Z,0.70
2023-01-15T02:12:08.349Z,0.70
2023-01-15T02:13:08.338Z,0.70
2023-01-15T02:14:08.328Z,0.80
2023-01-15T02:15:08.331Z,0.70
2023-01-15T02:16:08.354Z,0.60
2023-01-15T02:17:08.300Z,0.70
2023-01-15T02:18:08.282Z,0.60
2023-01-15T02:19:08.270Z,0.60
2023-01-15T02:20:08.269Z,0.70
2023-01-15T02:21:08.254Z,0.70
2023-01-15T02:22:08.237Z,0.70
2023-01-15T02:23:08.228Z,0.70
2023-01-15T02:24:08.212Z,0.80
2023-01-15T02:25:08.205Z,0.70
2023-01-15T02:26:08.193Z,0.70
2023-01-15T02:27:08.188Z,0.90
2023-01-15T02:28:08.168Z,0.70
2023-01-15T02:29:08.154Z,0.70
2023-01-15T02:30:08.151Z,0.50
2023-01-15T02:31:08.141Z,0.70
2023-01-15T02:32:08.119Z,0.80
2023-01-15T02:33:08.138Z,0.70
2023-01-15T02:34:08.111Z,0.70
2023-01-15T02:35:08.088Z,0.80
2023-01-15T02:36:08.075Z,0.70
2023-01-15T02:37:08.066Z,0.60
2023-01-15T02:38:08.059Z,0.70
2023-01-15T02:39:08.059Z,0.70
2023-01-15T02:40:08.038Z,0.70
2023-01-15T02:41:08.018Z,0.70
2023-01-15T02:42:08.010Z,0.60
2023-01-15T02:43:07.993Z,1.00
2023-01-15T02:44:07.984Z,0.70
2023-01-15T02:45:08.003Z,0.70
2023-01-15T02:46:08.037Z,0.60
2023-01-15T02:47:07.951Z,0.70
2023-01-15T02:48:07.940Z,0.70
2023-01-15T02:49:07.929Z,0.80
2023-01-15T02:50:07.915Z,0.70
2023-01-15T02:51:08.407Z,0.70
2023-01-15T02:52:07.897Z,0.80
2023-01-15T02:53:07.902Z,0.60
2023-01-15T02:54:07.870Z,0.50
2023-01-15T02:55:07.860Z,0.50
2023-01-15T02:56:07.851Z,0.70
2023-01-15T02:57:07.843Z,0.80
2023-01-15T02:58:07.846Z,0.70
2023-01-15T02:59:07.812Z,0.70
2023-01-15T03:00:07.808Z,0.60
2023-01-15T03:01:07.886Z,0.70
2023-01-15T03:02:07.942Z,0.50
2023-01-15T03:03:07.775Z,0.60
2023-01-15T03:04:07.758Z,0.70
2023-01-15T03:05:07.746Z,0.50
2023-01-15T03:06:07.734Z,0.60
2023-01-15T03:07:07.736Z,0.70
2023-01-15T03:08:07.711Z,0.60
2023-01-15T03:09:07.735Z,0.70
2023-01-15T03:10:07.694Z,0.70
2023-01-15T03:11:07.676Z,0.70
2023-01-15T03:12:07.670Z,1.00
2023-01-15T03:13:07.653Z,0.60
2023-01-15T03:14:07.644Z,0.90
2023-01-15T03:15:07.651Z,0.60
2023-01-15T03:16:07.617Z,0.90
2023-01-15T03:17:07.610Z,0.50
2023-01-15T03:18:07.597Z,0.60
2023-01-15T03:19:07.587Z,0.60
2023-01-15T03:20:07.578Z,0.70
2023-01-15T03:21:07.569Z,0.70
2023-01-15T03:22:07.552Z,0.70
2023-01-15T03:23:07.546Z,0.50
2023-01-15T03:24:07.533Z,0.50
2023-01-15T03:25:07.525Z,0.80
2023-01-15T03:26:07.505Z,0.60
2023-01-15T03:27:07.503Z,0.60
2023-01-15T03:28:07.487Z,0.60
2023-01-15T03:29:07.475Z,0.60
2023-01-15T03:30:07.460Z,0.80
2023-01-15T03:31:07.534Z,0.60
2023-01-15T03:32:07.435Z,0.50
2023-01-15T03:33:07.435Z,0.70
2023-01-15T03:34:07.413Z,0.60
2023-01-15T03:35:07.405Z,0.50
2023-01-15T03:36:07.395Z,0.60
2023-01-15T03:37:07.387Z,0.60
2023-01-15T03:38:07.372Z,0.50
2023-01-15T03:39:07.362Z,0.60
2023-01-15T03:40:07.346Z,0.50
2023-01-15T03:41:07.333Z,0.70
2023-01-15T03:42:07.325Z,0.70
2023-01-15T03:43:07.311Z,0.70
2023-01-15T03:44:07.301Z,0.50
2023-01-15T03:45:07.323Z,0.60
2023-01-15T03:46:07.300Z,0.60
2023-01-15T03:47:07.269Z,0.60
2023-01-15T03:48:07.269Z,0.50
2023-01-15T03:49:07.293Z,0.50
2023-01-15T03:50:07.230Z,0.80
2023-01-15T03:51:07.241Z,0.60
2023-01-15T03:52:07.208Z,0.50
2023-01-15T03:53:07.196Z,0.60
2023-01-15T03:54:07.298Z,0.50
2023-01-15T03:55:07.182Z,0.60
2023-01-15T03:56:07.167Z,0.80
2023-01-15T03:57:07.180Z,0.60
2023-01-15T03:58:07.139Z,0.60
2023-01-15T03:59:07.128Z,0.50
2023-01-15T04:00:07.129Z,0.50
2023-01-15T04:01:07.235Z,0.60
2023-01-15T04:02:07.269Z,0.50
2023-01-15T04:03:07.094Z,0.60
2023-01-15T04:04:07.176Z,0.50
2023-01-15T04:05:07.066Z,0.50
2023-01-15T04:06:07.053Z,0.80
2023-01-15T04:07:07.040Z,0.60
2023-01-15T04:08:07.031Z,0.70
2023-01-15T04:09:07.022Z,0.60
2023-01-15T04:10:07.005Z,0.80
2023-01-15T04:11:07.014Z,0.70
2023-01-15T04:12:06.984Z,0.60
2023-01-15T04:13:06.968Z,0.50
2023-01-15T04:14:06.997Z,0.40
2023-01-15T04:15:06.953Z,0.50
2023-01-15T04:16:07.033Z,0.60
2023-01-15T04:17:06.921Z,0.50
2023-01-15T04:18:06.911Z,0.60
2023-01-15T04:19:06.911Z,0.50
2023-01-15T04:20:06.890Z,0.50
2023-01-15T04:21:06.909Z,0.60
2023-01-15T04:22:06.881Z,0.50
2023-01-15T04:23:06.856Z,0.50
2023-01-15T04:24:06.844Z,0.50
2023-01-15T04:25:06.848Z,0.50
2023-01-15T04:26:06.824Z,0.50
2023-01-15T04:27:06.831Z,0.60
2023-01-15T04:28:06.805Z,0.60
2023-01-15T04:29:06.788Z,0.60
2023-01-15T04:30:06.780Z,0.50
2023-01-15T04:31:06.820Z,0.50
2023-01-15T04:32:06.756Z,0.60
2023-01-15T04:33:06.773Z,0.50
2023-01-15T04:34:06.734Z,0.50
2023-01-15T04:35:06.735Z,0.50
2023-01-15T04:36:06.704Z,0.50
2023-01-15T04:37:06.714Z,1.00
2023-01-15T04:38:06.696Z,0.50
2023-01-15T04:39:06.676Z,0.50
2023-01-15T04:40:06.661Z,0.70
2023-01-15T04:41:06.657Z,0.50
2023-01-15T04:42:06.640Z,0.90
2023-01-15T04:43:06.628Z,0.60
2023-01-15T04:44:06.615Z,0.50
2023-01-15T04:45:06.609Z,0.50
2023-01-15T04:46:06.609Z,0.80
2023-01-15T04:47:06.582Z,0.60
2023-01-15T04:48:06.571Z,0.50
2023-01-15T04:49:06.569Z,0.60
2023-01-15T04:50:06.552Z,0.50
2023-01-15T04:51:06.539Z,0.60
2023-01-15T04:52:06.524Z,0.60
2023-01-15T04:53:06.520Z,0.60
2023-01-15T04:54:06.502Z,0.60
2023-01-15T04:55:06.495Z,0.70
2023-01-15T04:56:06.478Z,0.50
2023-01-15T04:57:06.494Z,0.60
2023-01-15T04:58:06.454Z,0.50
2023-01-15T04:59:06.443Z,0.50
2023-01-15T05:00:06.437Z,0.60
2023-01-15T05:01:06.579Z,0.70
2023-01-15T05:02:07.044Z,0.50
2023-01-15T05:03:06.444Z,0.40
2023-01-15T05:04:06.421Z,0.70
2023-01-15T05:05:06.384Z,0.50
2023-01-15T05:06:06.365Z,0.60
2023-01-15T05:07:06.358Z,0.80
2023-01-15T05:08:06.344Z,0.70
2023-01-15T05:09:06.349Z,0.50
2023-01-15T05:10:06.318Z,0.60
2023-01-15T05:11:06.311Z,0.50
2023-01-15T05:12:06.308Z,0.60
2023-01-15T05:13:06.282Z,0.50
2023-01-15T05:14:06.285Z,0.50
2023-01-15T05:15:06.283Z,0.70
2023-01-15T05:16:06.309Z,0.50
2023-01-15T05:17:06.241Z,0.60
2023-01-15T05:18:06.228Z,0.50
2023-01-15T05:19:06.217Z,0.50
2023-01-15T05:20:06.204Z,0.50
2023-01-15T05:21:06.196Z,0.40
2023-01-15T05:22:06.183Z,0.50
2023-01-15T05:23:06.172Z,0.60
2023-01-15T05:24:06.170Z,0.70
2023-01-15T05:25:06.146Z,0.60
2023-01-15T05:26:06.153Z,0.50
2023-01-15T05:27:06.150Z,0.40
2023-01-15T05:28:06.115Z,0.50
2023-01-15T05:29:06.110Z,0.60
2023-01-15T05:30:06.088Z,0.50
2023-01-15T05:31:06.106Z,0.50
2023-01-15T05:32:08.227Z,0.50
2023-01-15T05:33:06.061Z,0.50
2023-01-15T05:34:06.042Z,0.50
2023-01-15T05:35:06.034Z,0.50
2023-01-15T05:36:06.022Z,0.50
2023-01-15T05:37:06.010Z,0.50
2023-01-15T05:38:05.999Z,0.50
2023-01-15T05:39:06.001Z,0.50
2023-01-15T05:40:05.975Z,0.50
2023-01-15T05:41:05.964Z,0.40
2023-01-15T05:42:05.952Z,0.50
2023-01-15T05:43:05.941Z,0.50
2023-01-15T05:44:05.936Z,0.50
2023-01-15T05:45:05.944Z,0.60
2023-01-15T05:46:05.941Z,0.80
2023-01-15T05:47:06.007Z,0.50
2023-01-15T05:48:05.883Z,0.60
2023-01-15T05:49:05.875Z,0.50
2023-01-15T05:50:05.860Z,0.60
2023-01-15T05:51:05.856Z,0.60
2023-01-15T05:52:05.837Z,0.50
2023-01-15T05:53:05.827Z,0.40
2023-01-15T05:54:05.815Z,0.50
2023-01-15T05:55:05.806Z,0.60
2023-01-15T05:56:05.791Z,0.70
2023-01-15T05:57:05.794Z,0.60
2023-01-15T05:58:05.769Z,0.50
2023-01-15T05:59:05.772Z,0.90
2023-01-15T06:00:05.748Z,0.60
2023-01-15T06:01:05.786Z,0.50
2023-01-15T06:02:05.730Z,0.40
2023-01-15T06:03:05.774Z,0.50
2023-01-15T06:04:05.795Z,0.50
2023-01-15T06:05:05.709Z,0.50
2023-01-15T06:06:05.677Z,0.50
2023-01-15T06:07:05.671Z,0.40
2023-01-15T06:08:05.655Z,0.40
2023-01-15T06:09:05.680Z,0.50
2023-01-15T06:10:05.634Z,0.50
2023-01-15T06:11:05.622Z,0.50
2023-01-15T06:12:05.614Z,0.50
2023-01-15T06:13:05.602Z,0.50
2023-01-15T06:14:05.587Z,0.50
2023-01-15T06:15:05.614Z,0.40
2023-01-15T06:16:05.683Z,0.60
2023-01-15T06:17:05.553Z,0.40
2023-01-15T06:18:05.541Z,0.40
2023-01-15T06:19:05.529Z,0.40
2023-01-15T06:20:05.524Z,0.50
2023-01-15T06:21:05.522Z,0.50
2023-01-15T06:22:05.496Z,0.50
2023-01-15T06:23:05.482Z,0.60
2023-01-15T06:24:05.479Z,0.50
2023-01-15T06:25:05.464Z,0.50
2023-01-15T06:26:05.449Z,0.50
2023-01-15T06:27:05.442Z,0.50
2023-01-15T06:28:05.436Z,0.40
2023-01-15T06:29:05.424Z,0.50
2023-01-15T06:30:05.404Z,0.70
2023-01-15T06:31:05.453Z,0.60
2023-01-15T06:32:05.380Z,0.40
2023-01-15T06:33:05.397Z,0.40
2023-01-15T06:34:05.364Z,0.40
2023-01-15T06:35:05.345Z,0.50
2023-01-15T06:36:05.339Z,0.50
2023-01-15T06:37:05.323Z,0.80
2023-01-15T06:38:05.318Z,0.40
2023-01-15T06:39:05.566Z,0.70
2023-01-15T06:40:05.291Z,0.40
2023-01-15T06:41:05.286Z,0.40
2023-01-15T06:42:05.284Z,0.60
2023-01-15T06:43:05.255Z,0.30
2023-01-15T06:44:05.244Z,0.40
2023-01-15T06:45:05.248Z,0.40
2023-01-15T06:46:05.222Z,0.50
2023-01-15T06:47:05.224Z,0.50
2023-01-15T06:48:05.198Z,0.40
2023-01-15T06:49:05.186Z,0.40
2023-01-15T06:50:05.177Z,0.50
2023-01-15T06:51:05.194Z,0.50
2023-01-15T06:52:05.162Z,0.40
2023-01-15T06:53:05.143Z,0.40
2023-01-15T06:54:05.129Z,0.40
2023-01-15T06:55:05.118Z,0.50
2023-01-15T06:56:05.107Z,0.50
2023-01-15T06:57:05.105Z,0.60
2023-01-15T06:58:05.084Z,0.50
2023-01-15T06:59:05.074Z,0.60
2023-01-15T07:00:05.062Z,0.40
2023-01-15T07:01:05.197Z,0.40
2023-01-15T07:02:05.056Z,0.50
2023-01-15T07:03:05.038Z,0.40
2023-01-15T07:04:05.127Z,0.40
2023-01-15T07:05:05.005Z,0.40
2023-01-15T07:06:05.001Z,0.50
2023-01-15T07:07:04.981Z,0.40
2023-01-15T07:08:04.973Z,0.40
2023-01-15T07:09:04.978Z,0.60
2023-01-15T07:10:04.954Z,0.40
2023-01-15T07:11:04.934Z,0.50
2023-01-15T07:12:04.928Z,0.50
2023-01-15T07:13:04.915Z,0.40
2023-01-15T07:14:04.904Z,0.60
2023-01-15T07:15:04.937Z,0.70
2023-01-15T07:16:05.003Z,0.50
2023-01-15T07:17:04.866Z,0.50
2023-01-15T07:18:04.856Z,0.40
2023-01-15T07:19:04.845Z,0.40
2023-01-15T07:20:04.869Z,0.80
2023-01-15T07:21:04.835Z,0.60
2023-01-15T07:22:04.817Z,0.40
2023-01-15T07:23:04.799Z,0.50
2023-01-15T07:24:04.789Z,0.40
2023-01-15T07:25:04.779Z,0.50
2023-01-15T07:26:04.766Z,0.50
2023-01-15T07:27:04.758Z,0.40
2023-01-15T07:28:04.747Z,0.30
2023-01-15T07:29:04.730Z,0.30
2023-01-15T07:30:04.728Z,0.60
2023-01-15T07:31:04.734Z,0.40
2023-01-15T07:32:04.702Z,0.70
2023-01-15T07:33:04.695Z,0.60
2023-01-15T07:34:04.701Z,0.50
2023-01-15T07:35:04.664Z,0.50
2023-01-15T07:36:04.652Z,0.50
2023-01-15T07:37:04.639Z,0.50
2023-01-15T07:38:04.628Z,0.50
2023-01-15T07:39:04.635Z,0.40
2023-01-15T07:40:04.610Z,0.50
2023-01-15T07:41:04.594Z,0.40
2023-01-15T07:42:04.588Z,0.50
2023-01-15T07:43:04.569Z,0.60
2023-01-15T07:44:04.558Z,0.70
2023-01-15T07:45:04.565Z,0.40
2023-01-15T07:46:04.549Z,0.40
2023-01-15T07:47:04.524Z,0.40
2023-01-15T07:48:04.511Z,0.40
2023-01-15T07:49:04.503Z,0.40
2023-01-15T07:50:04.493Z,0.70
2023-01-15T07:51:04.510Z,0.40
2023-01-15T07:52:04.469Z,0.40
2023-01-15T07:53:04.456Z,0.40
2023-01-15T07:54:04.445Z,0.40
2023-01-15T07:55:04.436Z,0.40
2023-01-15T07:56:04.420Z,0.50
2023-01-15T07:57:04.422Z,0.40
2023-01-15T07:58:04.397Z,0.40
2023-01-15T07:59:04.387Z,0.40
2023-01-15T08:00:04.376Z,0.40
2023-01-15T08:01:04.475Z,0.40
2023-01-15T08:02:04.478Z,0.40
2023-01-15T08:03:04.360Z,0.40
2023-01-15T08:04:04.375Z,0.40
2023-01-15T08:05:04.317Z,0.40
2023-01-15T08:06:04.311Z,0.40
2023-01-15T08:07:04.298Z,0.30
2023-01-15T08:08:04.286Z,0.40
2023-01-15T08:09:04.282Z,0.40
2023-01-15T08:10:04.262Z,0.40
2023-01-15T08:11:04.251Z,0.60
2023-01-15T08:12:04.240Z,0.70
2023-01-15T08:13:04.231Z,0.50
2023-01-15T08:14:04.216Z,0.30
2023-01-15T08:15:04.231Z,0.40
2023-01-15T08:16:04.248Z,0.30
2023-01-15T08:17:04.181Z,0.50
2023-01-15T08:18:04.170Z,0.50
2023-01-15T08:19:04.158Z,0.40
2023-01-15T08:20:04.147Z,0.50
2023-01-15T08:21:04.158Z,0.50
2023-01-15T08:22:04.127Z,0.50
2023-01-15T08:23:04.119Z,0.60
2023-01-15T08:24:04.106Z,0.50
2023-01-15T08:25:04.120Z,0.60
2023-01-15T08:26:04.104Z,0.80
2023-01-15T08:27:04.105Z,0.40
2023-01-15T08:28:04.101Z,0.50
2023-01-15T08:29:04.045Z,0.40
2023-01-15T08:30:04.036Z,0.40
2023-01-15T08:31:04.022Z,0.40
2023-01-15T08:32:04.010Z,0.60
2023-01-15T08:33:04.028Z,0.40
2023-01-15T08:34:03.990Z,0.30
2023-01-15T08:35:03.975Z,0.50
2023-01-15T08:36:03.977Z,0.40
2023-01-15T08:37:03.957Z,0.40
2023-01-15T08:38:03.943Z,0.40
2023-01-15T08:39:03.970Z,0.40
2023-01-15T08:40:03.922Z,0.40
2023-01-15T08:41:03.936Z,0.40
2023-01-15T08:42:03.894Z,0.40
2023-01-15T08:43:03.886Z,0.40
2023-01-15T08:44:03.873Z,0.50
2023-01-15T08:45:03.867Z,0.50
2023-01-15T08:46:03.887Z,0.50
2023-01-15T08:47:03.839Z,0.40
2023-01-15T08:48:03.827Z,0.50
2023-01-15T08:49:05.824Z,0.50
2023-01-15T08:50:03.806Z,0.50
2023-01-15T08:51:03.797Z,0.40
2023-01-15T08:52:03.782Z,0.60
2023-01-15T08:53:03.772Z,0.50
2023-01-15T08:54:03.773Z,0.50
2023-01-15T08:55:03.751Z,0.50
2023-01-15T08:56:03.738Z,0.50
2023-01-15T08:57:03.743Z,0.40
2023-01-15T08:58:03.717Z,0.50
2023-01-15T08:59:03.707Z,0.40
2023-01-15T09:00:03.693Z,0.40
2023-01-15T09:01:03.794Z,0.40
2023-01-15T09:02:03.833Z,0.40
2023-01-15T09:03:03.670Z,0.50
2023-01-15T09:04:03.644Z,0.60
2023-01-15T09:05:03.726Z,0.50
2023-01-15T09:06:03.624Z,0.50
2023-01-15T09:07:03.669Z,0.40
2023-01-15T09:08:03.599Z,0.30
2023-01-15T09:09:03.605Z,0.40
2023-01-15T09:10:03.576Z,0.40
2023-01-15T09:11:03.567Z,0.70
2023-01-15T09:12:03.555Z,0.40
2023-01-15T09:13:03.542Z,0.70
2023-01-15T09:14:03.530Z,0.40
2023-01-15T09:15:03.704Z,0.50
2023-01-15T09:16:03.509Z,0.50
2023-01-15T09:17:03.499Z,0.40
2023-01-15T09:18:03.485Z,0.50
2023-01-15T09:19:03.473Z,0.50
2023-01-15T09:20:03.496Z,0.60
2023-01-15T09:21:03.472Z,0.80
2023-01-15T09:22:03.458Z,0.50
2023-01-15T09:23:03.428Z,0.50
2023-01-15T09:24:03.415Z,0.40
2023-01-15T09:25:03.415Z,0.40
2023-01-15T09:26:03.393Z,0.40
2023-01-15T09:27:03.389Z,0.70
2023-01-15T09:28:03.401Z,0.60
2023-01-15T09:29:03.360Z,0.50
2023-01-15T09:30:03.350Z,0.50
2023-01-15T09:31:03.390Z,0.40
2023-01-15T09:32:03.329Z,0.40
2023-01-15T09:33:03.345Z,0.40
2023-01-15T09:34:03.305Z,0.50
2023-01-15T09:35:03.291Z,0.40
2023-01-15T09:36:03.282Z,0.50
2023-01-15T09:37:03.272Z,0.50
2023-01-15T09:38:03.257Z,0.50
2023-01-15T09:39:03.259Z,0.50
2023-01-15T09:40:03.243Z,0.40
2023-01-15T09:41:03.238Z,0.60
2023-01-15T09:42:03.210Z,0.50
2023-01-15T09:43:03.199Z,0.40
2023-01-15T09:44:03.189Z,0.40
2023-01-15T09:45:03.218Z,0.40
2023-01-15T09:46:03.203Z,0.40
2023-01-15T09:47:03.154Z,0.50
2023-01-15T09:48:03.153Z,0.80
2023-01-15T09:49:03.131Z,0.50
2023-01-15T09:50:03.126Z,0.50
2023-01-15T09:51:03.131Z,0.50
2023-01-15T09:52:03.104Z,0.40
2023-01-15T09:53:03.092Z,0.40
2023-01-15T09:54:03.088Z,0.50
2023-01-15T09:55:03.075Z,0.40
2023-01-15T09:56:03.054Z,0.50
2023-01-15T09:57:03.047Z,0.40
2023-01-15T09:58:03.034Z,0.40
2023-01-15T09:59:03.018Z,0.40
2023-01-15T10:00:03.005Z,0.40
2023-01-15T10:01:02.998Z,0.30
2023-01-15T10:02:02.985Z,0.50
2023-01-15T10:03:03.040Z,0.40
2023-01-15T10:04:03.033Z,0.50
2023-01-15T10:05:05.245Z,0.60
2023-01-15T10:06:02.951Z,0.40
2023-01-15T10:07:02.923Z,0.50
2023-01-15T10:08:02.913Z,0.50
2023-01-15T10:09:02.907Z,0.60
2023-01-15T10:10:02.893Z,0.30
2023-01-15T10:11:02.881Z,0.80
2023-01-15T10:12:02.880Z,0.40
2023-01-15T10:13:02.872Z,0.40
2023-01-15T10:14:02.868Z,0.70
2023-01-15T10:15:02.866Z,0.40
2023-01-15T10:16:02.869Z,0.50
2023-01-15T10:17:02.851Z,0.40
2023-01-15T10:18:02.801Z,0.40
2023-01-15T10:19:02.789Z,0.70
2023-01-15T10:20:02.804Z,0.40
2023-01-15T10:21:02.786Z,0.40
2023-01-15T10:22:02.755Z,0.50
2023-01-15T10:23:02.745Z,0.40
2023-01-15T10:24:02.793Z,0.40
2023-01-15T10:25:02.725Z,0.50
2023-01-15T10:26:02.707Z,0.50
2023-01-15T10:27:02.718Z,0.40
2023-01-15T10:28:02.685Z,0.50
2023-01-15T10:29:02.674Z,0.50
2023-01-15T10:30:02.664Z,0.40
2023-01-15T10:31:02.707Z,0.50
2023-01-15T10:32:02.640Z,0.50
2023-01-15T10:33:03.472Z,0.40
2023-01-15T10:34:02.618Z,0.50
2023-01-15T10:35:02.612Z,0.60
2023-01-15T10:36:02.599Z,0.50
2023-01-15T10:37:02.583Z,0.40
2023-01-15T10:38:02.575Z,0.60
2023-01-15T10:39:02.570Z,0.50
2023-01-15T10:40:02.563Z,0.50
2023-01-15T10:41:02.538Z,0.50
2023-01-15T10:42:02.525Z,0.60
2023-01-15T10:43:02.534Z,0.50
2023-01-15T10:44:02.503Z,0.40
2023-01-15T10:45:02.501Z,0.50
2023-01-15T10:46:02.495Z,0.50
2023-01-15T10:47:02.498Z,0.60
2023-01-15T10:48:02.457Z,0.40
2023-01-15T10:49:02.444Z,0.50
2023-01-15T10:50:02.437Z,0.40
2023-01-15T10:51:02.433Z,0.40
2023-01-15T10:52:02.439Z,0.40
2023-01-15T10:53:02.442Z,0.50
2023-01-15T10:54:02.390Z,0.40
2023-01-15T10:55:02.376Z,0.40
2023-01-15T10:56:02.367Z,0.60
2023-01-15T10:57:02.368Z,0.60
2023-01-15T10:58:10.293Z,0.40
2023-01-15T10:59:03.331Z,0.60
2023-01-15T11:00:02.321Z,0.50
2023-01-15T11:01:02.351Z,0.50
2023-01-15T11:02:02.494Z,0.80
2023-01-15T11:03:02.340Z,0.40
2023-01-15T11:04:02.273Z,0.60
2023-01-15T11:05:02.285Z,0.50
2023-01-15T11:06:02.258Z,0.60
2023-01-15T11:07:02.241Z,0.50
2023-01-15T11:08:34.225Z,0.40
2023-01-15T11:09:11.953Z,0.70
2023-01-15T11:10:03.209Z,0.40
2023-01-15T11:11:02.201Z,0.40
2023-01-15T11:12:02.242Z,0.40
2023-01-15T11:13:02.171Z,0.40
2023-01-15T11:14:02.182Z,0.40
2023-01-15T11:15:02.155Z,0.50
2023-01-15T11:16:02.199Z,0.50
2023-01-15T11:17:02.131Z,0.40
2023-01-15T11:18:02.130Z,0.70
2023-01-15T11:19:02.106Z,0.40
2023-01-15T11:20:02.122Z,0.40
2023-01-15T11:21:02.085Z,0.50
2023-01-15T11:22:02.071Z,0.50
2023-01-15T11:23:02.054Z,0.40
2023-01-15T11:24:02.054Z,0.50
2023-01-15T11:25:02.050Z,0.80
2023-01-15T11:26:02.032Z,0.50
2023-01-15T11:27:02.019Z,0.40
2023-01-15T11:28:02.000Z,0.50
2023-01-15T11:29:01.992Z,0.50
2023-01-15T11:30:01.983Z,0.80
2023-01-15T11:31:02.123Z,0.80
2023-01-15T11:32:01.953Z,0.60
2023-01-15T11:33:02.444Z,0.60
2023-01-15T11:34:01.936Z,0.40
2023-01-15T11:35:01.928Z,0.40
2023-01-15T11:36:01.931Z,0.50
2023-01-15T11:37:01.900Z,0.50
2023-01-15T11:38:01.894Z,0.40
2023-01-15T11:39:01.899Z,0.50
2023-01-15T11:40:01.865Z,0.50
2023-01-15T11:41:01.860Z,0.50
2023-01-15T11:42:01.840Z,0.70
2023-01-15T11:43:01.835Z,0.50
2023-01-15T11:44:01.835Z,0.40
2023-01-15T11:45:01.836Z,0.40
2023-01-15T11:46:01.851Z,0.60
2023-01-15T11:47:01.786Z,0.50
2023-01-15T11:48:01.771Z,0.50
2023-01-15T11:49:01.766Z,0.50
2023-01-15T11:50:01.769Z,0.40
2023-01-15T11:51:01.763Z,0.70
2023-01-15T11:52:01.736Z,0.40
2023-01-15T11:53:01.714Z,0.50
2023-01-15T11:54:01.712Z,0.40
2023-01-15T11:55:01.699Z,0.50
2023-01-15T11:56:01.704Z,0.40
2023-01-15T11:57:01.686Z,0.40
2023-01-15T11:58:01.664Z,0.40
2023-01-15T11:59:01.652Z,0.40
2023-01-15T12:00:01.643Z,0.60
2023-01-15T12:01:01.703Z,0.40
2023-01-15T12:02:01.614Z,0.50
2023-01-15T12:03:01.610Z,0.40
2023-01-15T12:04:01.799Z,0.50
2023-01-15T12:05:01.583Z,0.50
2023-01-15T12:06:01.577Z,0.60
2023-01-15T12:07:01.571Z,0.40
2023-01-15T12:08:01.574Z,0.60
2023-01-15T12:09:01.562Z,0.60
2023-01-15T12:10:01.564Z,0.70
2023-01-15T12:11:08.445Z,0.50
2023-01-15T12:12:02.497Z,0.60
2023-01-15T12:13:01.487Z,0.50
2023-01-15T12:14:01.494Z,0.40
2023-01-15T12:15:01.484Z,0.40
2023-01-15T12:16:01.478Z,0.40
2023-01-15T12:17:01.443Z,0.50
2023-01-15T12:18:01.430Z,0.50
2023-01-15T12:19:01.418Z,0.60
2023-01-15T12:20:01.414Z,0.50
2023-01-15T12:21:01.409Z,0.40
2023-01-15T12:22:01.386Z,0.40
2023-01-15T12:23:01.373Z,0.40
2023-01-15T12:24:01.370Z,0.60
2023-01-15T12:25:01.357Z,0.50
2023-01-15T12:26:01.348Z,0.50
2023-01-15T12:27:01.332Z,0.60
2023-01-15T12:28:01.316Z,0.40
2023-01-15T12:29:01.304Z,0.60
2023-01-15T12:30:01.297Z,0.40
2023-01-15T12:31:01.309Z,0.40
2023-01-15T12:32:01.282Z,0.50
2023-01-15T12:33:01.268Z,0.60
2023-01-15T12:34:01.247Z,0.90
2023-01-15T12:35:01.237Z,0.50
2023-01-15T12:36:01.227Z,0.50
2023-01-15T12:37:01.222Z,0.60
2023-01-15T12:38:01.201Z,0.40
2023-01-15T12:39:01.214Z,0.50
2023-01-15T12:40:01.179Z,0.50
2023-01-15T12:41:01.169Z,0.50
2023-01-15T12:42:01.160Z,0.50
2023-01-15T12:43:01.146Z,0.40
2023-01-15T12:44:01.132Z,0.50
2023-01-15T12:45:01.138Z,0.50
2023-01-15T12:46:01.114Z,0.50
2023-01-15T12:47:01.110Z,0.50
2023-01-15T12:48:01.100Z,0.50
2023-01-15T12:49:01.078Z,0.50
2023-01-15T12:50:01.079Z,0.40
2023-01-15T12:51:01.079Z,0.50
2023-01-15T12:52:01.041Z,0.50
2023-01-15T12:53:01.030Z,0.50
2023-01-15T12:54:01.018Z,0.50
2023-01-15T12:55:01.009Z,0.40
2023-01-15T12:56:00.995Z,0.60
2023-01-15T12:57:02.987Z,0.80
2023-01-15T12:58:01.030Z,0.50
2023-01-15T12:59:00.961Z,0.50
2023-01-15T13:00:00.974Z,0.50
2023-01-15T13:01:01.034Z,0.70
2023-01-15T13:02:01.031Z,0.50
2023-01-15T13:03:00.924Z,0.40
2023-01-15T13:04:00.920Z,0.50
2023-01-15T13:05:00.902Z,0.50
2023-01-15T13:06:00.884Z,0.50
2023-01-15T13:07:00.871Z,0.50
2023-01-15T13:08:00.861Z,0.50
2023-01-15T13:09:00.853Z,0.50
2023-01-15T13:10:00.848Z,0.50
2023-01-15T13:11:00.828Z,0.90
2023-01-15T13:12:00.822Z,0.60
2023-01-15T13:13:00.801Z,0.60
2023-01-15T13:14:00.790Z,0.60
2023-01-15T13:15:00.789Z,0.60
2023-01-15T13:16:00.798Z,0.50
2023-01-15T13:17:00.756Z,0.50
2023-01-15T13:18:00.768Z,0.60